createdAt,value
2022-09-12T00:00:44.361Z,15.50
2022-09-12T00:03:11.247Z,15.50
2022-09-12T00:05:44.898Z,15.40
2022-09-12T00:08:11.933Z,15.40
2022-09-12T00:10:40.068Z,15.40
2022-09-12T00:13:07.642Z,15.40
2022-09-12T00:15:41.517Z,15.30
2022-09-12T00:18:09.334Z,15.30
2022-09-12T00:20:36.253Z,15.30
2022-09-12T00:23:03.196Z,15.30
2022-09-12T00:25:31.370Z,15.30
2022-09-12T00:27:58.316Z,15.30
2022-09-12T00:30:25.382Z,15.30
2022-09-12T00:32:54.759Z,15.20
2022-09-12T00:35:21.631Z,15.20
2022-09-12T00:37:48.548Z,15.20
2022-09-12T00:40:15.507Z,15.20
2022-09-12T00:42:42.433Z,15.20
2022-09-12T00:45:18.293Z,15.20
2022-09-12T00:47:45.133Z,15.20
2022-09-12T00:50:13.538Z,15.20
2022-09-12T00:52:45.378Z,15.20
2022-09-12T00:55:22.934Z,15.30
2022-09-12T00:58:09.725Z,15.40
2022-09-12T01:00:36.604Z,15.50
2022-09-12T01:03:09.365Z,15.60
2022-09-12T01:05:37.821Z,15.70
2022-09-12T01:08:05.162Z,15.80
2022-09-12T01:10:32.720Z,15.90
2022-09-12T01:12:59.565Z,16.00
2022-09-12T01:15:26.449Z,16.10
2022-09-12T01:18:21.207Z,16.20
2022-09-12T01:21:03.139Z,16.30
2022-09-12T01:23:54.301Z,16.40
2022-09-12T01:26:49.946Z,16.50
2022-09-12T01:29:46.108Z,16.60
2022-09-12T01:32:28.003Z,16.60
2022-09-12T01:35:07.200Z,16.60
2022-09-12T01:38:03.463Z,16.70
2022-09-12T01:40:56.368Z,16.70
2022-09-12T01:43:38.273Z,16.70
2022-09-12T01:46:15.352Z,16.70
2022-09-12T01:48:58.285Z,16.80
2022-09-12T01:51:26.297Z,16.80
2022-09-12T01:53:57.637Z,16.90
2022-09-12T01:56:29.754Z,16.90
2022-09-12T01:59:13.082Z,16.90
2022-09-12T02:01:51.626Z,17.00
2022-09-12T02:04:20.955Z,17.00
2022-09-12T02:07:14.722Z,17.00
2022-09-12T02:09:47.499Z,17.10
2022-09-12T02:12:16.065Z,17.10
2022-09-12T02:14:46.027Z,17.20
2022-09-12T02:17:18.967Z,17.20
2022-09-12T02:19:49.137Z,17.20
2022-09-12T02:22:17.325Z,17.30
2022-09-12T02:24:46.387Z,17.30
2022-09-12T02:27:15.835Z,17.30
2022-09-12T02:29:44.384Z,17.30
2022-09-12T02:32:42.576Z,17.40
2022-09-12T02:35:33.997Z,17.40
2022-09-12T02:38:10.475Z,17.40
2022-09-12T02:40:37.335Z,17.40
2022-09-12T02:43:05.038Z,17.40
2022-09-12T02:45:34.375Z,17.40
2022-09-12T02:48:17.070Z,17.40
2022-09-12T02:50:43.908Z,17.40
2022-09-12T02:53:11.377Z,17.40
2022-09-12T02:55:39.070Z,17.30
2022-09-12T02:58:08.332Z,17.30
2022-09-12T03:00:36.526Z,17.20
2022-09-12T03:03:24.379Z,17.20
2022-09-12T03:06:11.522Z,17.10
2022-09-12T03:08:47.401Z,17.10
2022-09-12T03:11:29.938Z,17.00
2022-09-12T03:14:00.160Z,17.00
2022-09-12T03:16:45.074Z,16.90
2022-09-12T03:19:41.290Z,16.90
2022-09-12T03:22:29.154Z,16.90
2022-09-12T03:25:06.426Z,16.90
2022-09-12T03:27:44.057Z,16.90
2022-09-12T03:30:12.643Z,16.90
2022-09-12T03:32:44.037Z,16.90
2022-09-12T03:35:11.472Z,16.90
2022-09-12T03:37:38.520Z,16.90
2022-09-12T03:40:06.265Z,16.80
2022-09-12T03:42:33.115Z,16.90
2022-09-12T03:44:59.976Z,16.90
2022-09-12T03:47:26.880Z,16.90
2022-09-12T03:49:53.699Z,16.90
2022-09-12T03:52:20.604Z,16.80
2022-09-12T03:54:47.404Z,16.80
2022-09-12T03:57:14.284Z,16.80
2022-09-12T03:59:41.165Z,16.80
2022-09-12T04:02:09.911Z,16.80
2022-09-12T04:04:36.800Z,16.80
2022-09-12T04:07:03.735Z,16.80
2022-09-12T04:09:30.706Z,16.80
2022-09-12T04:11:57.537Z,16.80
2022-09-12T04:14:24.500Z,16.80
2022-09-12T04:16:51.519Z,16.80
2022-09-12T04:19:18.504Z,16.80
2022-09-12T04:21:45.454Z,16.80
2022-09-12T04:24:12.586Z,16.70
2022-09-12T04:26:39.753Z,16.70
2022-09-12T04:29:06.669Z,16.70
2022-09-12T04:31:33.578Z,16.70
2022-09-12T04:34:01.003Z,16.70
2022-09-12T04:36:28.645Z,16.70
2022-09-12T04:38:55.633Z,16.70
2022-09-12T04:41:23.807Z,16.70
2022-09-12T04:43:55.420Z,16.70
2022-09-12T04:46:22.350Z,16.70
2022-09-12T04:48:52.221Z,16.60
2022-09-12T04:51:23.595Z,16.60
2022-09-12T04:53:52.186Z,16.60
2022-09-12T04:56:19.547Z,16.60
2022-09-12T04:58:46.845Z,16.60
2022-09-12T05:01:15.488Z,16.60
2022-09-12T05:03:45.563Z,16.50
2022-09-12T05:06:23.994Z,16.60
2022-09-12T05:08:51.388Z,16.60
2022-09-12T05:11:25.467Z,16.60
2022-09-12T05:13:55.201Z,16.60
2022-09-12T05:16:22.376Z,16.60
2022-09-12T05:18:50.402Z,16.60
2022-09-12T05:21:18.930Z,16.60
2022-09-12T05:23:45.861Z,16.60
2022-09-12T05:26:13.869Z,16.60
2022-09-12T05:28:44.040Z,16.60
2022-09-12T05:31:11.889Z,16.70
2022-09-12T05:33:39.801Z,16.70
2022-09-12T05:36:08.298Z,16.70
2022-09-12T05:38:35.711Z,16.70
2022-09-12T05:41:16.140Z,16.70
2022-09-12T05:43:45.276Z,16.70
2022-09-12T05:46:14.166Z,16.70
2022-09-12T05:48:42.512Z,16.80
2022-09-12T05:51:11.418Z,16.80
2022-09-12T05:53:38.658Z,16.80
2022-09-12T05:56:10.176Z,16.80
2022-09-12T05:58:38.112Z,16.80
2022-09-12T06:01:15.619Z,16.90
2022-09-12T06:03:47.109Z,16.90
2022-09-12T06:06:14.643Z,16.90
2022-09-12T06:08:43.119Z,16.90
2022-09-12T06:11:14.867Z,17.00
2022-09-12T06:13:42.380Z,17.00
2022-09-12T06:16:20.412Z,17.10
2022-09-12T06:18:53.984Z,17.10
2022-09-12T06:21:21.588Z,17.20
2022-09-12T06:23:48.699Z,17.20
2022-09-12T06:26:17.003Z,17.20
2022-09-12T06:28:47.827Z,17.30
2022-09-12T06:31:33.284Z,17.30
2022-09-12T06:34:23.328Z,17.40
2022-09-12T06:37:10.127Z,17.50
2022-09-12T06:39:38.500Z,17.60
2022-09-12T06:42:08.551Z,17.70
2022-09-12T06:44:35.440Z,17.80
2022-09-12T06:47:02.407Z,17.90
2022-09-12T06:49:29.380Z,18.10
2022-09-12T06:51:56.235Z,18.20
2022-09-12T06:54:23.574Z,18.30
2022-09-12T06:56:50.466Z,18.40
2022-09-12T06:59:17.725Z,18.50
2022-09-12T07:01:44.706Z,18.60
2022-09-12T07:04:11.768Z,18.70
2022-09-12T07:06:40.698Z,18.70
2022-09-12T07:09:09.964Z,18.80
2022-09-12T07:11:37.329Z,18.80
2022-09-12T07:14:05.156Z,18.90
2022-09-12T07:16:32.410Z,18.90
2022-09-12T07:19:03.014Z,19.00
2022-09-12T07:21:30.051Z,19.00
2022-09-12T07:23:58.574Z,19.00
2022-09-12T07:26:27.088Z,19.10
2022-09-12T07:28:54.678Z,19.10
2022-09-12T07:31:23.471Z,19.20
2022-09-12T07:33:54.397Z,19.30
2022-09-12T07:36:23.370Z,19.40
2022-09-12T07:38:57.246Z,19.40
2022-09-12T07:41:29.173Z,19.40
2022-09-12T07:43:57.656Z,19.50
2022-09-12T07:46:25.238Z,19.50
2022-09-12T07:48:52.828Z,19.60
2022-09-12T07:51:19.898Z,19.70
2022-09-12T07:53:47.281Z,19.70
2022-09-12T07:56:14.368Z,19.70
2022-09-12T07:58:42.003Z,19.70
2022-09-12T08:01:11.328Z,19.80
2022-09-12T08:03:38.614Z,19.90
2022-09-12T08:06:05.548Z,19.90
2022-09-12T08:08:33.235Z,20.00
2022-09-12T08:11:01.097Z,20.10
2022-09-12T08:13:30.981Z,20.30
2022-09-12T08:16:02.282Z,20.40
2022-09-12T08:18:29.857Z,20.50
2022-09-12T08:21:01.123Z,20.50
2022-09-12T08:23:28.839Z,20.60
2022-09-12T08:25:57.942Z,20.70
2022-09-12T08:28:25.162Z,20.60
2022-09-12T08:30:53.108Z,20.70
2022-09-12T08:33:20.356Z,20.70
2022-09-12T08:35:47.378Z,20.70
2022-09-12T08:38:14.344Z,20.70
2022-09-12T08:40:50.330Z,20.70
2022-09-12T08:43:37.468Z,20.70
2022-09-12T08:46:11.223Z,20.80
2022-09-12T08:48:38.313Z,20.90
2022-09-12T08:51:05.293Z,21.00
2022-09-12T08:53:32.762Z,21.20
2022-09-12T08:56:00.060Z,21.30
2022-09-12T08:58:28.520Z,21.50
2022-09-12T09:01:03.269Z,21.60
2022-09-12T09:03:36.187Z,21.60
2022-09-12T09:06:26.861Z,21.70
2022-09-12T09:09:08.770Z,21.90
2022-09-12T09:11:45.946Z,21.90
2022-09-12T09:14:34.018Z,22.00
2022-09-12T09:17:01.161Z,22.00
2022-09-12T09:19:34.529Z,22.00
2022-09-12T09:22:04.462Z,22.10
2022-09-12T09:24:43.360Z,22.00
2022-09-12T09:27:39.390Z,22.00
2022-09-12T09:30:16.473Z,22.00
2022-09-12T09:32:43.425Z,22.00
2022-09-12T09:35:39.333Z,22.10
2022-09-12T09:38:36.270Z,22.20
2022-09-12T09:41:51.020Z,22.40
2022-09-12T09:44:18.093Z,22.50
2022-09-12T09:46:44.977Z,22.60
2022-09-12T09:49:13.290Z,22.80
2022-09-12T09:51:40.782Z,22.90
2022-09-12T09:54:57.623Z,22.90
2022-09-12T09:57:39.126Z,22.90
2022-09-12T10:00:30.706Z,23.00
2022-09-12T10:03:13.445Z,22.90
2022-09-12T10:05:52.856Z,22.90
2022-09-12T10:08:23.892Z,22.90
2022-09-12T10:11:20.358Z,22.80
2022-09-12T10:13:55.195Z,22.80
2022-09-12T10:16:50.488Z,22.80
2022-09-12T10:19:38.158Z,22.90
2022-09-12T10:22:05.772Z,22.90
2022-09-12T10:24:52.576Z,22.80
2022-09-12T10:27:24.585Z,22.90
2022-09-12T10:30:00.431Z,23.00
2022-09-12T10:32:31.410Z,23.10
2022-09-12T10:35:02.795Z,23.20
2022-09-12T10:37:42.346Z,23.30
2022-09-12T10:40:25.133Z,23.50
2022-09-12T10:42:59.368Z,23.60
2022-09-12T10:45:35.871Z,23.70
2022-09-12T10:48:07.654Z,23.80
2022-09-12T10:50:44.285Z,23.90
2022-09-12T10:53:34.901Z,24.00
2022-09-12T10:56:12.142Z,24.10
2022-09-12T10:59:06.846Z,24.20
2022-09-12T11:01:44.902Z,24.30
2022-09-12T11:04:23.804Z,24.40
2022-09-12T11:06:56.729Z,24.50
2022-09-12T11:09:38.891Z,24.50
2022-09-12T11:12:25.117Z,24.50
2022-09-12T11:15:13.639Z,24.50
2022-09-12T11:17:55.557Z,24.60
2022-09-12T11:20:41.024Z,24.70
2022-09-12T11:23:27.230Z,24.80
2022-09-12T11:26:29.313Z,24.90
2022-09-12T11:29:03.606Z,24.90
2022-09-12T11:31:49.168Z,24.90
2022-09-12T11:34:23.379Z,24.90
2022-09-12T11:37:18.465Z,25.00
2022-09-12T11:39:46.364Z,25.10
2022-09-12T11:42:20.256Z,25.20
2022-09-12T11:44:49.301Z,25.20
2022-09-12T11:47:18.713Z,25.30
2022-09-12T11:49:50.890Z,25.30
2022-09-12T11:52:21.165Z,25.40
2022-09-12T11:55:17.224Z,25.50
2022-09-12T11:57:54.619Z,25.50
2022-09-12T12:00:26.666Z,25.70
2022-09-12T12:03:17.704Z,25.80
2022-09-12T12:06:11.596Z,25.80
2022-09-12T12:08:40.344Z,25.70
2022-09-12T12:11:10.985Z,25.60
2022-09-12T12:13:56.232Z,25.50
2022-09-12T12:16:27.382Z,25.40
2022-09-12T12:19:01.450Z,25.30
2022-09-12T12:21:41.379Z,25.30
2022-09-12T12:24:08.292Z,25.40
2022-09-12T12:26:41.209Z,25.50
2022-09-12T12:29:17.902Z,25.60
2022-09-12T12:32:17.815Z,25.70
2022-09-12T12:34:45.307Z,25.70
2022-09-12T12:37:28.175Z,25.60
2022-09-12T12:40:04.352Z,25.60
2022-09-12T12:42:31.210Z,25.50
2022-09-12T12:44:58.327Z,25.50
2022-09-12T12:47:41.712Z,25.50
2022-09-12T12:50:21.398Z,25.50
2022-09-12T12:52:57.907Z,25.50
2022-09-12T12:55:29.434Z,25.50
2022-09-12T12:57:56.794Z,25.50
2022-09-12T13:00:28.284Z,25.60
2022-09-12T13:03:07.140Z,25.70
2022-09-12T13:05:51.656Z,25.80
2022-09-12T13:08:18.548Z,26.00
2022-09-12T13:11:10.111Z,26.00
2022-09-12T13:13:38.602Z,26.10
2022-09-12T13:16:05.642Z,26.00
2022-09-12T13:18:46.460Z,26.00
2022-09-12T13:21:15.236Z,26.00
2022-09-12T13:23:42.243Z,26.00
2022-09-12T13:26:14.449Z,26.00
2022-09-12T13:28:41.333Z,26.10
2022-09-12T13:31:25.213Z,26.20
2022-09-12T13:33:57.099Z,26.30
2022-09-12T13:36:33.319Z,26.20
2022-09-12T13:39:18.943Z,26.20
2022-09-12T13:42:03.977Z,26.20
2022-09-12T13:44:31.347Z,26.10
2022-09-12T13:47:01.351Z,26.00
2022-09-12T13:49:28.449Z,26.00
2022-09-12T13:52:17.552Z,26.00
2022-09-12T13:54:45.081Z,25.90
2022-09-12T13:57:55.312Z,25.80
2022-09-12T14:00:22.526Z,25.80
2022-09-12T14:02:49.598Z,25.80
2022-09-12T14:05:22.245Z,25.80
2022-09-12T14:07:54.487Z,25.70
2022-09-12T14:10:32.011Z,25.70
2022-09-12T14:13:00.275Z,25.70
2022-09-12T14:15:29.105Z,25.70
2022-09-12T14:17:59.750Z,25.70
2022-09-12T14:20:28.423Z,25.70
2022-09-12T14:22:55.985Z,25.70
2022-09-12T14:25:24.993Z,25.70
2022-09-12T14:27:56.793Z,25.70
2022-09-12T14:31:23.135Z,25.60
2022-09-12T14:37:55.656Z,25.60
2022-09-12T14:40:56.334Z,25.60
2022-09-12T14:43:23.193Z,25.70
2022-09-12T14:46:02.172Z,25.80
2022-09-12T14:48:33.910Z,25.90
2022-09-12T14:51:01.427Z,26.00
2022-09-12T14:53:33.566Z,26.00
2022-09-12T14:56:11.336Z,26.10
2022-09-12T14:58:39.239Z,26.10
2022-09-12T15:01:06.133Z,26.10
2022-09-12T15:03:35.007Z,26.10
2022-09-12T15:06:03.102Z,26.00
2022-09-12T15:08:30.660Z,26.00
2022-09-12T15:10:58.220Z,26.00
2022-09-12T15:13:26.119Z,25.90
2022-09-12T15:15:57.471Z,25.90
2022-09-12T15:18:26.052Z,25.80
2022-09-12T15:20:58.352Z,25.80
2022-09-12T15:23:43.009Z,25.80
2022-09-12T15:26:13.050Z,25.80
2022-09-12T15:28:43.686Z,25.80
2022-09-12T15:31:32.753Z,25.80
2022-09-12T15:34:01.077Z,25.80
2022-09-12T15:36:28.964Z,25.80
2022-09-12T15:38:55.947Z,25.90
2022-09-12T15:41:31.537Z,25.90
2022-09-12T15:43:59.158Z,25.80
2022-09-12T15:46:26.084Z,25.80
2022-09-12T15:48:52.967Z,25.80
2022-09-12T15:51:20.981Z,25.80
2022-09-12T15:53:48.618Z,25.70
2022-09-12T15:56:21.235Z,25.60
2022-09-12T15:58:59.133Z,25.50
2022-09-12T16:01:27.147Z,25.50
2022-09-12T16:03:54.349Z,25.50
2022-09-12T16:06:22.333Z,25.50
2022-09-12T16:08:49.374Z,25.50
2022-09-12T16:11:21.503Z,25.40
2022-09-12T16:13:48.931Z,25.20
2022-09-12T16:16:15.825Z,25.20
2022-09-12T16:18:42.885Z,25.10
2022-09-12T16:21:14.236Z,25.00
2022-09-12T16:23:45.930Z,25.10
2022-09-12T16:26:12.851Z,25.10
2022-09-12T16:28:39.757Z,25.20
2022-09-12T16:31:07.640Z,25.10
2022-09-12T16:33:34.659Z,25.10
2022-09-12T16:36:06.527Z,25.00
2022-09-12T16:38:33.914Z,25.00
2022-09-12T16:41:05.499Z,25.00
2022-09-12T16:43:33.101Z,25.00
2022-09-12T16:46:20.069Z,25.00
2022-09-12T16:48:52.062Z,25.00
2022-09-12T16:51:24.361Z,24.90
2022-09-12T16:53:51.230Z,24.90
2022-09-12T16:56:18.517Z,24.80
2022-09-12T16:58:45.512Z,24.70
2022-09-12T17:01:17.745Z,24.70
2022-09-12T17:03:44.907Z,24.60
2022-09-12T17:06:16.595Z,24.60
2022-09-12T17:08:45.012Z,24.50
2022-09-12T17:11:13.414Z,24.50
2022-09-12T17:14:03.443Z,24.40
2022-09-12T17:16:27.760Z,24.40
2022-09-12T17:18:54.717Z,24.20
2022-09-12T17:21:21.759Z,24.20
2022-09-12T17:23:49.007Z,24.10
2022-09-12T17:26:15.905Z,24.00
2022-09-12T17:28:42.906Z,23.90
2022-09-12T17:31:11.758Z,23.80
2022-09-12T17:33:39.298Z,23.70
2022-09-12T17:36:16.773Z,23.70
2022-09-12T17:38:44.895Z,23.70
2022-09-12T17:41:17.913Z,23.70
2022-09-12T17:43:50.984Z,23.60
2022-09-12T17:46:19.120Z,23.60
2022-09-12T17:48:56.477Z,23.60
2022-09-12T17:51:25.106Z,23.50
2022-09-12T17:54:05.594Z,23.40
2022-09-12T17:56:33.094Z,23.40
2022-09-12T17:59:00.334Z,23.40
2022-09-12T18:01:46.562Z,23.40
2022-09-12T18:04:14.252Z,23.30
2022-09-12T18:06:47.834Z,23.30
2022-09-12T18:09:16.661Z,23.30
2022-09-12T18:11:43.735Z,23.20
2022-09-12T18:14:13.957Z,23.20
2022-09-12T18:16:41.623Z,23.10
2022-09-12T18:19:11.001Z,23.00
2022-09-12T18:21:38.109Z,23.00
2022-09-12T18:24:05.466Z,23.00
2022-09-12T18:26:32.748Z,23.00
2022-09-12T18:28:59.735Z,22.90
2022-09-12T18:31:29.042Z,22.90
2022-09-12T18:33:56.248Z,22.90
2022-09-12T18:36:23.093Z,22.80
2022-09-12T18:38:50.162Z,22.80
2022-09-12T18:41:21.432Z,22.70
2022-09-12T18:43:48.710Z,22.60
2022-09-12T18:46:17.864Z,22.60
2022-09-12T18:48:45.204Z,22.60
2022-09-12T18:51:18.670Z,22.60
2022-09-12T18:53:56.393Z,22.50
2022-09-12T18:56:24.775Z,22.50
2022-09-12T18:58:53.300Z,22.40
2022-09-12T19:01:30.551Z,22.40
2022-09-12T19:03:57.755Z,22.30
2022-09-12T19:06:29.691Z,22.30
2022-09-12T19:08:57.040Z,22.30
2022-09-12T19:11:24.187Z,22.20
2022-09-12T19:13:51.958Z,22.20
2022-09-12T19:16:20.571Z,22.20
2022-09-12T19:18:49.865Z,22.20
2022-09-12T19:21:18.177Z,22.10
2022-09-12T19:23:45.293Z,22.10
2022-09-12T19:26:13.113Z,22.10
2022-09-12T19:28:40.271Z,22.00
2022-09-12T19:31:07.854Z,22.00
2022-09-12T19:33:35.559Z,22.00
2022-09-12T19:36:13.895Z,22.00
2022-09-12T19:38:53.800Z,22.00
2022-09-12T19:41:20.996Z,21.90
2022-09-12T19:43:47.833Z,22.00
2022-09-12T19:46:18.812Z,21.90
2022-09-12T19:48:46.238Z,21.90
2022-09-12T19:51:13.243Z,21.90
2022-09-12T19:53:41.038Z,21.90
2022-09-12T19:56:08.869Z,21.90
2022-09-12T19:58:40.438Z,21.90
2022-09-12T20:01:18.726Z,21.90
2022-09-12T20:03:45.734Z,21.80
2022-09-12T20:06:17.163Z,21.80
2022-09-12T20:08:44.143Z,21.80
2022-09-12T20:11:12.898Z,21.70
2022-09-12T20:13:40.110Z,21.70
2022-09-12T20:16:21.350Z,21.70
2022-09-12T20:18:52.514Z,21.70
2022-09-12T20:21:20.377Z,21.70
2022-09-12T20:23:47.330Z,21.70
2022-09-12T20:26:14.414Z,21.70
2022-09-12T20:28:41.424Z,21.70
2022-09-12T20:31:13.245Z,21.60
2022-09-12T20:33:40.422Z,21.60
2022-09-12T20:36:10.978Z,21.60
2022-09-12T20:38:37.852Z,21.60
2022-09-12T20:41:06.290Z,21.60
2022-09-12T20:43:33.237Z,21.50
2022-09-12T20:46:00.214Z,21.50
2022-09-12T20:48:27.121Z,21.50
2022-09-12T20:50:54.061Z,21.40
2022-09-12T20:53:20.974Z,21.40
2022-09-12T20:55:51.704Z,21.40
2022-09-12T20:58:19.480Z,21.30
2022-09-12T21:00:46.872Z,21.30
2022-09-12T21:03:14.475Z,21.30
2022-09-12T21:05:43.014Z,21.20
2022-09-12T21:08:10.387Z,21.20
2022-09-12T21:10:37.282Z,21.20
2022-09-12T21:13:04.202Z,21.10
2022-09-12T21:15:31.101Z,21.10
2022-09-12T21:17:58.074Z,21.10
2022-09-12T21:20:25.009Z,21.10
2022-09-12T21:22:51.907Z,21.00
2022-09-12T21:25:19.009Z,21.00
2022-09-12T21:27:45.886Z,20.90
2022-09-12T21:30:13.147Z,20.90
2022-09-12T21:32:40.896Z,20.80
2022-09-12T21:35:08.613Z,20.80
2022-09-12T21:37:37.242Z,20.80
2022-09-12T21:40:04.440Z,20.70
2022-09-12T21:42:31.918Z,20.70
2022-09-12T21:44:58.835Z,20.70
2022-09-12T21:47:25.705Z,20.70
2022-09-12T21:49:52.541Z,20.70
2022-09-12T21:52:19.333Z,20.70
2022-09-12T21:54:46.281Z,20.70
2022-09-12T21:57:13.110Z,20.70
2022-09-12T21:59:39.891Z,20.60
2022-09-12T22:02:08.722Z,20.60
2022-09-12T22:04:35.627Z,20.50
2022-09-12T22:07:02.491Z,20.50
2022-09-12T22:09:29.399Z,20.50
2022-09-12T22:11:56.292Z,20.50
2022-09-12T22:14:23.623Z,20.40
2022-09-12T22:16:50.784Z,20.50
2022-09-12T22:19:18.866Z,20.50
2022-09-12T22:22:04.126Z,20.50
2022-09-12T22:24:31.077Z,20.50
2022-09-12T22:26:59.076Z,20.50
2022-09-12T22:29:26.887Z,20.40
2022-09-12T22:31:53.858Z,20.40
2022-09-12T22:34:20.729Z,20.40
2022-09-12T22:36:48.447Z,20.40
2022-09-12T22:39:15.346Z,20.40
2022-09-12T22:41:42.246Z,20.30
2022-09-12T22:44:10.581Z,20.30
2022-09-12T22:46:38.037Z,20.30
2022-09-12T22:49:05.920Z,20.20
2022-09-12T22:51:33.082Z,20.20
2022-09-12T22:53:59.976Z,20.10
2022-09-12T22:56:27.187Z,20.10
2022-09-12T22:58:54.174Z,20.10
2022-09-12T23:01:21.109Z,20.00
2022-09-12T23:03:48.101Z,20.00
2022-09-12T23:06:15.056Z,19.90
2022-09-12T23:08:41.953Z,19.90
2022-09-12T23:11:13.785Z,19.80
2022-09-12T23:13:42.772Z,19.80
2022-09-12T23:16:10.949Z,19.70
2022-09-12T23:18:37.876Z,19.70
2022-09-12T23:21:06.562Z,19.60
2022-09-12T23:23:33.532Z,19.60
2022-09-12T23:26:22.711Z,19.50
2022-09-12T23:28:52.088Z,19.50
2022-09-12T23:31:19.435Z,19.50
2022-09-12T23:33:46.568Z,19.40
2022-09-12T23:36:14.330Z,19.40
2022-09-12T23:38:45.163Z,19.40
2022-09-12T23:41:12.926Z,19.40
2022-09-12T23:43:40.005Z,19.40
2022-09-12T23:46:07.298Z,19.40
2022-09-12T23:48:34.246Z,19.40
2022-09-12T23:51:01.145Z,19.30
2022-09-12T23:53:28.035Z,19.40
2022-09-12T23:55:54.834Z,19.40
2022-09-12T23:58:22.844Z,19.40
